Time;durP1;ratioP1;P1;durP2;ratioP2;P2;SDS_P1;SDS_P2;PMS_P1;PMS_P2;Temp;Humidity;BMP_temperature;BMP_pressure;BME280_temperature;BME280_humidity;BME280_pressure;Samples;Min_cycle;Max_cycle;Signal;HPM_P1;HPM_P2
2022/12/28 09:54:26;;;;;;;13.88;6.40;;;8.40;99.90;;;;;;5147949;27;20321;-61
2022/12/28 09:56:52;;;;;;;11.77;6.75;;;8.30;99.90;;;;;;5128666;28;20030;-61
2022/12/28 09:59:24;;;;;;;17.10;7.63;;;8.40;99.90;;;;;;5125824;28;20024;-61
2022/12/28 10:01:59;;;;;;;15.80;8.95;;;8.50;99.90;;;;;;5128722;28;20077;-62
2022/12/28 10:04:25;;;;;;;14.38;8.18;;;8.60;99.90;;;;;;5127673;28;20019;-61
2022/12/28 10:06:51;;;;;;;14.52;8.48;;;8.70;99.90;;;;;;5109600;28;20422;-62
2022/12/28 10:09:24;;;;;;;14.55;8.02;;;8.80;99.90;;;;;;5127335;28;20033;-62
2022/12/28 10:11:50;;;;;;;16.50;8.35;;;8.80;99.90;;;;;;5108178;28;20028;-62
2022/12/28 10:14:26;;;;;;;11.88;7.38;;;8.80;99.90;;;;;;5139284;27;20042;-62
2022/12/28 10:16:51;;;;;;;12.93;7.45;;;8.90;99.90;;;;;;5108224;28;20564;-62
2022/12/28 10:19:21;;;;;;;11.90;7.15;;;8.90;99.90;;;;;;5106852;28;20102;-62
2022/12/28 10:22:02;;;;;;;12.20;7.32;;;8.90;99.90;;;;;;5106410;28;20028;-62
2022/12/28 10:24:28;;;;;;;13.47;6.83;;;8.90;99.90;;;;;;5107660;28;20495;-63
2022/12/28 10:26:59;;;;;;;14.95;6.40;;;8.90;99.90;;;;;;5119767;28;20440;-62
2022/12/28 10:29:25;;;;;;;7.93;4.97;;;8.90;99.90;;;;;;5127106;28;20507;-63
2022/12/28 10:32:11;;;;;;;8.55;5.80;;;9.00;99.90;;;;;;5108779;28;20023;-63
2022/12/28 10:34:59;;;;;;;13.23;5.35;;;9.00;99.90;;;;;;5088502;28;20118;-63
2022/12/28 10:37:29;;;;;;;8.45;5.05;;;9.00;99.90;;;;;;5107446;28;20020;-63
2022/12/28 10:39:58;;;;;;;12.07;5.38;;;9.10;99.90;;;;;;5107024;28;20020;-63
2022/12/28 10:42:27;;;;;;;10.57;5.55;;;9.00;99.90;;;;;;5105817;28;20408;-63
2022/12/28 10:45:00;;;;;;;10.35;5.72;;;9.00;99.90;;;;;;5093024;28;20357;-63
2022/12/28 10:47:34;;;;;;;9.85;5.53;;;9.00;99.90;;;;;;5115498;28;20024;-63
2022/12/28 10:50:00;;;;;;;9.18;5.28;;;9.00;99.90;;;;;;5111181;28;20019;-63
2022/12/28 10:52:26;;;;;;;9.57;5.18;;;9.10;99.90;;;;;;5126794;28;20039;-63
2022/12/28 10:54:52;;;;;;;9.70;6.05;;;9.10;99.90;;;;;;5115342;28;20051;-64
2022/12/28 10:57:19;;;;;;;11.35;6.43;;;9.10;99.90;;;;;;5106517;28;20063;-62
2022/12/28 10:59:45;;;;;;;11.90;6.40;;;9.10;99.90;;;;;;5117796;28;20483;-63
2022/12/28 11:02:31;;;;;;;10.27;6.15;;;9.10;99.90;;;;;;5127550;28;20034;-63
2022/12/28 11:05:00;;;;;;;10.18;5.88;;;9.20;99.90;;;;;;5117960;28;20051;-63
2022/12/28 11:07:36;;;;;;;11.98;6.20;;;9.20;99.90;;;;;;5114166;28;20472;-62
2022/12/28 11:10:22;;;;;;;13.02;5.50;;;9.20;99.90;;;;;;5113437;28;20135;-64
2022/12/28 11:12:49;;;;;;;9.90;5.95;;;9.30;99.90;;;;;;5106193;28;20036;-64
2022/12/28 11:15:17;;;;;;;10.70;4.90;;;9.30;99.90;;;;;;5107667;28;20030;-63
2022/12/28 11:17:45;;;;;;;9.70;5.57;;;9.30;99.90;;;;;;5113101;28;20026;-63
2022/12/28 11:20:21;;;;;;;10.35;5.25;;;9.20;99.90;;;;;;5106465;28;20023;-63
2022/12/28 11:22:47;;;;;;;8.32;4.90;;;9.20;99.90;;;;;;5093147;28;20023;-64
2022/12/28 11:25:29;;;;;;;7.40;4.80;;;9.20;99.90;;;;;;5112669;28;20020;-63
2022/12/28 11:27:56;;;;;;;9.15;5.10;;;9.20;99.90;;;;;;5113434;28;20138;-64
2022/12/28 11:30:22;;;;;;;9.98;4.07;;;9.30;99.90;;;;;;5112411;28;20024;-63
2022/12/28 11:32:59;;;;;;;7.28;4.22;;;9.20;99.90;;;;;;5111944;28;20084;-63
2022/12/28 11:35:30;;;;;;;7.97;4.38;;;9.20;99.90;;;;;;5113317;28;20019;-63
2022/12/28 11:37:59;;;;;;;5.50;3.55;;;9.30;99.90;;;;;;5112591;28;20008;-63
2022/12/28 11:40:43;;;;;;;5.15;3.17;;;9.30;99.90;;;;;;5113315;28;20024;-63
2022/12/28 11:43:28;;;;;;;6.97;3.85;;;9.30;99.90;;;;;;5111879;28;20035;-63
2022/12/28 11:46:01;;;;;;;5.45;3.17;;;9.30;99.90;;;;;;5094537;28;20466;-63
2022/12/28 11:48:41;;;;;;;5.80;3.90;;;9.30;99.90;;;;;;5094398;28;20472;-63
2022/12/28 11:51:21;;;;;;;5.88;3.67;;;9.30;99.90;;;;;;5113295;28;20034;-62
2022/12/28 11:53:48;;;;;;;5.45;3.20;;;9.30;99.90;;;;;;5110826;28;20055;-61
2022/12/28 11:56:15;;;;;;;7.38;3.05;;;9.20;99.90;;;;;;5094376;28;20377;-63
2022/12/28 11:58:43;;;;;;;4.75;3.20;;;9.20;99.90;;;;;;5093805;28;20020;-63
2022/12/28 12:01:29;;;;;;;4.60;3.10;;;9.20;99.90;;;;;;5093107;28;20452;-62
2022/12/28 12:03:57;;;;;;;4.82;2.88;;;9.30;99.90;;;;;;5090658;28;20031;-62
2022/12/28 12:06:45;;;;;;;5.18;3.35;;;9.30;99.90;;;;;;5091653;28;20480;-62
2022/12/28 12:09:20;;;;;;;4.82;2.80;;;9.20;99.90;;;;;;5112856;28;20020;-61
2022/12/28 12:11:47;;;;;;;4.47;2.97;;;9.20;99.90;;;;;;5112326;28;20031;-62
2022/12/28 12:14:14;;;;;;;7.03;3.03;;;9.30;99.90;;;;;;5111290;28;20027;-61
2022/12/28 12:16:49;;;;;;;6.60;3.38;;;9.30;99.90;;;;;;5095022;28;20020;-62
2022/12/28 12:19:22;;;;;;;5.63;3.55;;;9.30;99.90;;;;;;5092183;28;20024;-62
2022/12/28 12:21:59;;;;;;;6.10;2.97;;;9.30;99.90;;;;;;5091257;28;20028;-62
2022/12/28 12:24:31;;;;;;;6.97;3.20;;;9.30;99.90;;;;;;5090234;28;20016;-62
2022/12/28 12:27:31;;;;;;;4.75;3.03;;;9.30;99.90;;;;;;5091888;28;20030;-62
2022/12/28 12:30:00;;;;;;;5.78;2.90;;;9.30;99.90;;;;;;5091772;28;20079;-62
2022/12/28 12:32:35;;;;;;;5.55;3.17;;;9.30;99.90;;;;;;5089335;28;20585;-61
2022/12/28 12:35:06;;;;;;;5.82;2.85;;;9.30;99.90;;;;;;5091488;28;20034;-61
2022/12/28 12:37:37;;;;;;;4.90;3.03;;;9.30;99.90;;;;;;5073427;28;20479;-62
2022/12/28 12:40:08;;;;;;;4.78;3.00;;;9.30;99.90;;;;;;5091563;28;20712;-61
2022/12/28 15:28:03;;;;;;;11.43;8.20;;;8.80;99.90;;;;;;5010820;28;1230679;-61
2022/12/28 15:30:29;;;;;;;13.70;6.75;;;8.80;99.90;;;;;;5026633;28;20462;-61
2022/12/28 15:32:55;;;;;;;12.75;6.25;;;8.80;99.90;;;;;;5027020;28;20021;-62
2022/12/28 15:35:21;;;;;;;12.05;6.10;;;8.90;99.90;;;;;;5025834;28;20080;-61
2022/12/28 15:37:47;;;;;;;10.57;7.07;;;9.00;99.90;;;;;;5026044;28;20379;-62
2022/12/28 15:40:13;;;;;;;13.73;7.03;;;9.10;99.90;;;;;;5006406;28;20426;-62
2022/12/28 15:42:38;;;;;;;7.70;5.35;;;9.10;99.90;;;;;;5006514;28;20022;-61
2022/12/28 15:45:04;;;;;;;11.35;6.40;;;9.20;99.90;;;;;;5007144;28;20595;-62
2022/12/28 15:47:30;;;;;;;9.05;5.38;;;9.20;99.90;;;;;;5006728;28;20435;-61
2022/12/28 15:49:58;;;;;;;8.02;4.60;;;9.20;99.90;;;;;;5005240;28;20049;-62
2022/12/28 15:52:24;;;;;;;8.93;4.20;;;9.30;99.90;;;;;;5006742;28;20451;-61
2022/12/28 15:54:49;;;;;;;8.95;6.07;;;9.30;99.90;;;;;;5006515;28;20083;-62
2022/12/28 15:57:15;;;;;;;9.15;5.65;;;9.20;99.90;;;;;;5005540;28;20344;-62
2022/12/28 15:59:40;;;;;;;6.97;4.72;;;9.30;99.90;;;;;;5007137;28;20030;-62
2022/12/28 16:02:09;;;;;;;6.40;4.40;;;9.30;99.90;;;;;;5006043;28;20054;-61
2022/12/28 16:04:35;;;;;;;7.15;4.45;;;9.30;99.90;;;;;;5006645;28;20026;-61
2022/12/28 16:07:01;;;;;;;8.30;4.20;;;9.30;99.90;;;;;;4988343;28;20407;-62
2022/12/28 16:09:26;;;;;;;6.75;4.18;;;9.30;99.90;;;;;;5006540;28;20026;-61
2022/12/28 16:11:52;;;;;;;5.50;3.47;;;9.40;99.90;;;;;;5005521;28;20034;-62
2022/12/28 16:14:17;;;;;;;6.53;4.10;;;9.40;99.90;;;;;;5006159;28;20018;-61
2022/12/28 16:16:44;;;;;;;7.57;4.35;;;9.40;99.90;;;;;;5006245;28;20041;-61
2022/12/28 16:19:12;;;;;;;6.68;5.03;;;9.40;99.90;;;;;;5005864;28;20018;-62
2022/12/28 16:21:38;;;;;;;8.88;5.90;;;9.40;99.90;;;;;;5006068;28;20038;-62
2022/12/28 16:24:04;;;;;;;7.35;3.85;;;9.40;99.90;;;;;;5005708;28;20030;-62
2022/12/28 16:26:29;;;;;;;7.40;3.90;;;9.40;99.90;;;;;;4987086;28;20104;-61
2022/12/28 16:28:57;;;;;;;6.78;3.78;;;9.40;99.90;;;;;;5006527;28;20072;-61
2022/12/28 16:31:31;;;;;;;11.05;6.38;;;9.40;99.90;;;;;;5005791;28;20022;-62
2022/12/28 16:34:24;;;;;;;8.55;5.32;;;9.40;99.90;;;;;;5006795;28;20014;-62
2022/12/28 16:36:55;;;;;;;10.73;5.95;;;9.40;99.90;;;;;;5002018;28;20065;-62
2022/12/28 16:39:21;;;;;;;7.22;4.68;;;9.40;99.90;;;;;;4992771;28;20026;-61
2022/12/28 16:41:47;;;;;;;10.15;5.82;;;9.30;99.90;;;;;;4992736;28;20078;-61
2022/12/28 16:44:16;;;;;;;7.38;5.22;;;9.30;99.90;;;;;;4992812;28;20046;-63
2022/12/28 16:46:42;;;;;;;8.48;5.18;;;9.30;99.90;;;;;;4991560;28;20052;-62
2022/12/28 16:49:09;;;;;;;7.22;4.45;;;9.30;99.90;;;;;;4992813;28;20132;-61
2022/12/28 16:51:40;;;;;;;10.80;4.88;;;9.30;99.90;;;;;;4992907;28;20109;-62
2022/12/28 16:54:06;;;;;;;7.80;5.47;;;9.20;99.90;;;;;;4991641;28;20110;-62
2022/12/28 16:56:32;;;;;;;9.07;5.38;;;9.30;99.90;;;;;;4974507;28;20426;-61
2022/12/28 16:58:59;;;;;;;6.95;5.15;;;9.20;99.90;;;;;;4993070;28;20073;-62
2022/12/28 17:01:25;;;;;;;7.30;4.95;;;9.20;99.90;;;;;;4992046;28;20027;-62
2022/12/28 17:03:51;;;;;;;7.25;4.10;;;9.20;99.90;;;;;;4974993;28;20033;-62
2022/12/28 17:06:16;;;;;;;8.20;4.25;;;9.20;99.90;;;;;;4991715;28;20038;-62
2022/12/28 17:08:42;;;;;;;7.55;4.18;;;9.20;99.90;;;;;;4992235;28;20034;-62
2022/12/28 17:11:09;;;;;;;8.30;5.80;;;9.20;99.90;;;;;;4992602;28;20565;-62
2022/12/28 17:13:35;;;;;;;11.75;5.55;;;9.20;99.90;;;;;;4974401;28;20053;-62
2022/12/28 17:16:01;;;;;;;7.70;5.15;;;9.20;99.90;;;;;;4991457;28;20120;-62
2022/12/28 17:18:27;;;;;;;11.32;7.63;;;9.10;99.90;;;;;;4992142;28;20451;-62
2022/12/28 17:20:52;;;;;;;13.23;8.07;;;9.10;99.90;;;;;;4991594;28;20141;-62
2022/12/28 17:23:18;;;;;;;9.73;6.65;;;9.10;99.90;;;;;;4992073;28;20048;-62
2022/12/28 17:25:49;;;;;;;10.30;7.38;;;9.10;99.90;;;;;;4974502;28;20486;-61
2022/12/28 17:28:15;;;;;;;7.57;6.05;;;9.10;99.90;;;;;;4990941;28;20495;-61
2022/12/28 17:30:40;;;;;;;10.98;6.53;;;9.10;99.90;;;;;;4998298;28;20025;-62
2022/12/28 17:33:06;;;;;;;9.65;6.60;;;9.10;99.90;;;;;;5011504;28;20109;-61
2022/12/28 17:35:32;;;;;;;10.18;6.18;;;9.10;99.90;;;;;;5010179;28;20533;-62
2022/12/28 17:37:57;;;;;;;13.00;6.25;;;9.10;99.90;;;;;;5010768;28;20061;-62
2022/12/28 17:40:23;;;;;;;10.23;7.63;;;9.10;99.90;;;;;;5010740;28;20344;-62
2022/12/28 17:42:48;;;;;;;10.93;6.45;;;9.10;99.90;;;;;;4990926;28;20029;-62
2022/12/28 17:45:14;;;;;;;10.90;5.90;;;9.00;99.90;;;;;;4990888;28;20038;-62
2022/12/28 17:47:40;;;;;;;9.65;5.93;;;9.00;99.90;;;;;;4990644;28;20570;-62
2022/12/28 17:50:06;;;;;;;9.88;6.40;;;9.00;99.90;;;;;;4989616;28;20030;-62
2022/12/28 17:52:32;;;;;;;14.05;7.20;;;9.00;99.90;;;;;;4991290;28;20022;-63
2022/12/28 17:54:57;;;;;;;10.80;7.75;;;9.00;99.90;;;;;;4991970;28;20121;-63
2022/12/28 17:57:23;;;;;;;9.18;6.82;;;9.00;99.90;;;;;;5009765;28;20026;-63
2022/12/28 17:59:48;;;;;;;11.13;6.85;;;9.00;99.90;;;;;;4999047;28;20034;-63
2022/12/28 18:02:14;;;;;;;15.63;7.40;;;9.00;99.90;;;;;;5001589;28;20482;-61
2022/12/28 18:04:40;;;;;;;11.00;6.95;;;9.00;99.90;;;;;;4991852;28;20034;-61
2022/12/28 18:07:06;;;;;;;12.35;6.00;;;9.00;99.90;;;;;;4992374;28;20117;-61
2022/12/28 18:09:32;;;;;;;10.88;5.32;;;9.00;99.90;;;;;;4993675;28;20061;-62
2022/12/28 18:11:58;;;;;;;9.18;5.40;;;9.00;99.90;;;;;;5008565;28;20057;-62
2022/12/28 18:14:25;;;;;;;10.55;7.72;;;9.00;99.90;;;;;;4992232;28;20109;-62
2022/12/28 18:16:51;;;;;;;10.00;6.35;;;9.00;99.90;;;;;;4991651;28;20101;-62
2022/12/28 18:19:17;;;;;;;7.03;5.15;;;9.00;99.90;;;;;;4991012;28;20549;-62
2022/12/28 18:21:42;;;;;;;10.25;4.88;;;9.10;99.90;;;;;;4992277;28;20022;-62
2022/12/28 18:24:11;;;;;;;10.60;4.95;;;9.00;99.90;;;;;;4973573;28;20034;-62
2022/12/28 18:26:37;;;;;;;7.60;4.57;;;9.00;99.90;;;;;;4991820;28;20046;-62
2022/12/28 18:29:03;;;;;;;10.43;4.45;;;9.10;99.90;;;;;;4991831;28;20022;-62
2022/12/28 18:31:28;;;;;;;7.28;5.03;;;9.10;99.90;;;;;;4991669;28;20391;-62
2022/12/28 18:33:54;;;;;;;8.18;5.82;;;9.10;99.90;;;;;;4992343;28;20381;-63
2022/12/28 18:36:20;;;;;;;10.60;5.43;;;9.10;99.90;;;;;;4991780;28;20514;-62
2022/12/28 18:38:47;;;;;;;8.20;5.00;;;9.10;99.90;;;;;;4991480;28;20033;-61
2022/12/28 18:41:15;;;;;;;9.80;4.80;;;9.10;99.90;;;;;;4991483;28;20426;-62
2022/12/28 18:43:41;;;;;;;7.65;4.68;;;9.10;99.90;;;;;;4992029;28;20494;-62
2022/12/28 18:46:07;;;;;;;6.47;3.70;;;9.10;99.90;;;;;;4990905;28;20034;-62
2022/12/28 18:48:36;;;;;;;7.55;4.13;;;9.10;99.90;;;;;;4992233;28;20026;-62
2022/12/28 18:51:08;;;;;;;7.30;4.05;;;9.10;99.90;;;;;;4991585;28;20049;-61
2022/12/28 18:53:34;;;;;;;6.80;4.38;;;9.10;99.90;;;;;;4991132;28;20113;-62
2022/12/28 18:56:01;;;;;;;8.50;4.45;;;9.10;99.90;;;;;;4991457;28;20101;-62
2022/12/28 18:58:28;;;;;;;6.82;4.07;;;9.10;99.90;;;;;;4991844;28;20016;-62
2022/12/28 19:01:05;;;;;;;8.32;4.40;;;9.10;99.90;;;;;;4990784;28;20098;-63
2022/12/28 19:03:31;;;;;;;7.63;4.03;;;9.10;99.90;;;;;;4973964;28;20026;-62
2022/12/28 19:06:07;;;;;;;8.80;5.20;;;9.10;99.90;;;;;;4991467;28;20022;-61
2022/12/28 19:08:35;;;;;;;7.50;4.13;;;9.10;99.90;;;;;;5000007;28;20037;-62
2022/12/28 19:11:02;;;;;;;6.28;3.95;;;9.10;99.90;;;;;;5010561;28;20026;-61
2022/12/28 19:13:31;;;;;;;5.53;4.30;;;9.10;99.90;;;;;;5010513;28;20018;-62
2022/12/28 19:15:57;;;;;;;8.10;4.10;;;9.10;99.90;;;;;;5010854;28;20478;-61
2022/12/28 19:18:22;;;;;;;5.82;3.45;;;9.10;99.90;;;;;;5011149;28;20041;-62
2022/12/28 19:20:48;;;;;;;4.85;3.35;;;9.10;99.90;;;;;;5010225;28;20064;-62
2022/12/28 19:23:13;;;;;;;6.03;3.42;;;9.10;99.90;;;;;;5011016;28;20481;-62
2022/12/28 19:25:39;;;;;;;8.68;4.25;;;9.10;99.90;;;;;;5011036;28;20054;-62
2022/12/28 19:28:05;;;;;;;7.43;3.67;;;9.10;99.90;;;;;;5009681;28;20073;-63
2022/12/28 19:30:31;;;;;;;4.07;3.10;;;9.10;99.90;;;;;;5010995;28;20026;-62
2022/12/28 19:32:56;;;;;;;8.43;3.45;;;9.10;99.90;;;;;;5010854;28;20026;-62
2022/12/28 19:35:22;;;;;;;6.80;3.13;;;9.10;99.90;;;;;;5010195;28;20041;-61
2022/12/28 19:37:47;;;;;;;5.28;3.35;;;9.10;99.90;;;;;;5010876;28;20064;-62
2022/12/28 19:40:13;;;;;;;5.75;3.53;;;9.10;99.90;;;;;;5010518;28;20042;-61
